Tuesday, February 20, 2018, 10:26 AM EST
Back to Local

K12N, Aeroflex-andover Airport

Location: Newton, NJ, United States Lat: 41.017
Local Time: 10:26 AM EST (15:26 GMT) Lon: -74.733
Time Zone: US/Eastern Elev: 583 ft

Show me the last for .
Show Decoded

2018-02-20 08:54 METAR K12N 201354Z AUTO VRB04KT 07/07 A3033 RMK AO1 SLP279 T00670067 =
2018-02-20 07:54 METAR K12N 201254Z AUTO 17003KT 06/06 A3032 RMK AO1 SLP276 T00560056 =
2018-02-20 06:54 METAR K12N 201154Z AUTO VRB03KT 05/05 A3031 RMK AO1 SLP273 70005 T00500050 10050
                 20033 53012 =
2018-02-20 05:54 METAR K12N 201054Z AUTO 00000KT 05/05 A3030 RMK AO1 SLP268 T00500050 =
2018-02-20 04:54 METAR K12N 200954Z AUTO 18004KT 05/05 A3028 RMK AO1 SLP262 T00500050 =
2018-02-20 03:54 METAR K12N 200854Z AUTO 00000KT 04/04 A3028 RMK AO1 SLP261 T00440044 58002 =
2018-02-20 02:54 METAR K12N 200754Z AUTO 17003KT 04/04 A3028 RMK AO1 SLP261 T00440044 =
2018-02-20 01:54 METAR K12N 200654Z AUTO 19003KT 04/04 A3029 RMK AO1 SLP264 T00440044 =
2018-02-20 00:54 METAR K12N 200554Z AUTO 00000KT 03/03 A3029 RMK AO1 SLP263 60002 T00330033 10033
                 20022 56017 =
2018-02-19 23:54 METAR K12N 200454Z AUTO 00000KT 03/03 A3031 RMK AO1 SLP270 T00330033 400561050 =
2018-02-19 22:54 METAR K12N 200354Z AUTO 22004KT 03/03 A3031 RMK AO1 SLP271 T00280028 =
2018-02-19 21:54 METAR K12N 200254Z AUTO 00000KT 03/03 A3034 RMK AO1 SLP280 60002 T00280028 55000
                 =
2018-02-19 20:54 METAR K12N 200154Z AUTO 00000KT 03/03 A3032 RMK AO1 SLP278 P0001 T00330033 =
2018-02-19 19:54 METAR K12N 200054Z AUTO 17003KT 03/03 A3034 RMK AO1 SLP284 P0001 T00330033 =
2018-02-19 18:54 METAR K12N 192354Z AUTO 00000KT 03/03 A3034 RMK AO1 SLP285 60003 T00330033 10056
                 20028 55004 =
2018-02-19 17:54 METAR K12N 192254Z AUTO 00000KT 03/03 A3033 RMK AO1 SLP283 P0001 T00330028 =
2018-02-19 16:54 METAR K12N 192154Z AUTO 00000KT 03/03 A3035 RMK AO1 SLP290 P0001 T00330033 =
2018-02-19 15:54 METAR K12N 192054Z AUTO 21003KT 04/03 A3035 RMK AO1 SLP289 P0001 60001 T00390028
                 56018 =
2018-02-19 14:54 METAR K12N 191954Z AUTO VRB04KT 05/02 A3037 RMK AO1 SLP297 T00500017 =
2018-02-19 13:54 METAR K12N 191854Z AUTO 20007KT 06/01 A3036 RMK AO1 SLP292 T00560006 =
2018-02-19 12:54 METAR K12N 191754Z AUTO 17004KT 05/01 A3040 RMK AO1 SLP307 T00500006 10050 21050
                 58019 =
2018-02-19 11:54 METAR K12N 191654Z AUTO VRB06KT 04/01 A3043 RMK AO1 SLP316 T00440006 =
2018-02-19 10:54 METAR K12N 191554Z AUTO 18004KT 05/00 A3045 RMK AO1 SLP323 T00500000 =

Support USWX by starting your Amazon purchase here.